Tieton, WA

8:03 PM PDT on September 18, 2014 (GMT -0700)
Tieton, WA | Change Station
CLOSE
Current Station
Personal Weather Station
Location: Tieton, WA
Elevation: 1970 ft
Nearby Weather Stations

Elev 1970 ft 46.71 °N, 120.72 °W | Updated 5 seconds ago

Partly Cloudy
Partly Cloudy
63.8 °F
Feels Like 63.8 °F
N
6.5
Wind Variable Wind from West
Gusts 8.1 mph

Today
High -- | Low -- °F
--% Chance of Precip.
Yesterday
High -- | Low -- °F
Precip. -- in
6:44 AM 7:08 PM
Waning Crescent, 22% visible
Pressure 29.84 in
Visibility 10.0 miles
Clouds Clear
Dew Point 52 °F
Humidity 65%
Rainfall 0.00 in
Snow Depth 0 in , 0 in , 0 in
UV 0 out of 12
Pollen 2.50 out of 12
Air Quality Not available.
Flu Activity Not available.
METAR KYKM 190253Z 33003KT 10SM CLR 19/11 A2985 RMK AO2 SLP104 T01890106 53028

More Conditions Fewer Conditions

Pressure 29.84 in
Visibility 10.0 miles
Clouds Clear
Dew Point 52 °F
Humidity 65%
Rainfall 0.00 in
Snow Depth 0 in , 0 in , 0 in
UV 0 out of 12
Pollen 2.50 out of 12
Air Quality Not available.
Flu Activity Not available.
METAR KYKM 190253Z 33003KT 10SM CLR 19/11 A2985 RMK AO2 SLP104 T01890106 53028

More Conditions Fewer Conditions

10-Day Weather Forecast

Almanac

Astronomy

Sep. 18, 2014 Rise Set
Actual Time 6:44 AM PDT 7:08 PM PDT
Civil Twilight 6:14 AM PDT 7:38 PM PDT
Nautical Twilight 5:38 AM PDT 8:14 PM PDT
Astronomical Twilight 5:01 AM PDT 8:51 PM PDT
Moon 1:27 AM PDT (9/18) 4:15 PM PDT (9/18)
Length of Visible Light 13h 24m
Length of Day
12h 23m
Tomorrow will be 3m 18s shorter.
Waning Crescent, 22% of the Moon is Illuminated
Today
Waning Crescent
Sep 24
New
Oct 1
First Quarter
Oct 8
Full
Oct 15
Last Quarter

Today's Extremes

State Highs State Lows

Community

WunderPhotos

Upload Photos

1,754,550 photos uploaded!

Nearby

Snow Depth

Station Depth Elevation
Wells Creek 0 in 4200 ft
Green Lake 0 in 6000 ft
June Lake 0 in 3340 ft
Dungeness 0 in 4100 ft
Morse Lake 0 in 5400 ft

Earthquake Activity

City Distance Mag. Time & Date
Morton, Washington 82 miles 3.0 5:43 AM PDT
2014-09-16
Minimum magnitude displayed is 2.5.

Coastal Water Temperatures

Place Temperature
No Stations Reporting

Nearby Weather Stations